Tee — WDF2365 — position and weather

sailwx.info

Track history (hours):
 
Tides and Currents Weather Stations Pressure Air Temp Water Temp Dewpoint Dewpoint Depression Visibility Wind Speed Wind Dir Waves Ship Positions

Tee

Owner: Enterprise Marine Services, LLC, San Antonio, TX. More information available from US FCC via Universal Licensing System and Coast Guard Vessel Documentation Center.

Last reported at 2017-Nov-25 16:52 UTC. Time now 2018-Jan-24 01:52 UTC.
Position N 29°33' W 090°25'.
Warning: this ship's position is 59 days out of date.

Length 24 m; draft 2.7 m.

Type: . MMSI: 367003980.

Date/timePositionNaut miles runAvg speedWind from/ knotsBaromVisibWave heightAir tempDewpointWater temp
2017-Nov-25 16:52N 29°33' W 090°25'2 5.0
2017-Nov-25 16:29N 29°33' W 090°27'2 4.2
2017-Nov-25 16:00N 29°34' W 090°29'2 5.0
2017-Nov-25 15:30N 29°34' W 090°32'2 4.8
2017-Nov-25 15:00N 29°34' W 090°35'2 4.6
2017-Nov-25 14:31N 29°35' W 090°37'1 1.3
2017-Nov-25 14:00N 29°35' W 090°38'0 0.3
2017-Nov-25 13:30N 29°35' W 090°38'0 0.2
2017-Nov-25 13:00N 29°35' W 090°38'0 0.1
2017-Nov-25 12:30N 29°35' W 090°38'0 0.1
2017-Nov-25 12:00N 29°35' W 090°38'0 0.0
2017-Nov-25 11:30N 29°35' W 090°38'0 0.0
2017-Nov-25 11:00N 29°35' W 090°38'0 0.0
2017-Nov-25 10:30N 29°35' W 090°38'0 0.0
2017-Nov-25 10:00N 29°35' W 090°38'0 0.0
2017-Nov-25 09:30N 29°35' W 090°38'0 0.0
2017-Nov-25 09:01N 29°35' W 090°38'0 0.0
2017-Nov-25 08:30N 29°35' W 090°38'0 0.0
2017-Nov-25 08:00N 29°35' W 090°38'0 0.1
2017-Nov-25 07:31N 29°35' W 090°38'0 0.1
2017-Nov-25 07:00N 29°35' W 090°38'0 0.1
2017-Nov-25 06:30N 29°35' W 090°38'0 0.0
2017-Nov-25 06:00N 29°35' W 090°38'0 0.1
2017-Nov-25 05:30N 29°35' W 090°38'1 2.6
2017-Nov-25 05:00N 29°36' W 090°40'2 4.1
2017-Nov-25 04:30N 29°37' W 090°42'2 3.7
2017-Nov-25 04:00N 29°35' W 090°43'2 3.2
2017-Nov-25 03:30N 29°34' W 090°44'1 2.8
2017-Nov-25 03:00N 29°33' W 090°45'0 0.0
2017-Nov-25 02:31N 29°33' W 090°45'1 3.0
2017-Nov-25 02:00N 29°32' W 090°47'3 5.4
2017-Nov-25 01:30N 29°32' W 090°50'3 5.2
2017-Nov-25 00:58N 29°32' W 090°53'57 4.0
2017-Nov-24 10:43N 29°51' W 091°54'1 4.8
2017-Nov-24 10:30N 29°51' W 091°56'2 4.5
2017-Nov-24 10:00N 29°50' W 091°58'2 4.9
2017-Nov-24 09:30N 29°49' W 092°01'2 4.8
2017-Nov-24 09:01N 29°49' W 092°03'2 4.9
2017-Nov-24 08:30N 29°48' W 092°06'2 4.8
2017-Nov-24 08:01N 29°47' W 092°09'2 3.8
2017-Nov-24 07:31N 29°47' W 092°11'2 3.1
2017-Nov-24 07:00N 29°47' W 092°12'1 1.9
2017-Nov-24 06:30N 29°48' W 092°13'0 0.9
2017-Nov-24 06:01N 29°48' W 092°14'1 2.9
2017-Nov-24 05:30N 29°48' W 092°16'2 3.9
2017-Nov-24 05:01N 29°49' W 092°17'41 4.2
2017-Nov-23 19:06N 29°56' W 093°05'1 4.5
2017-Nov-23 18:59N 29°56' W 093°05'2 3.8
2017-Nov-23 18:31N 29°56' W 093°07'2 3.3
2017-Nov-23 18:00N 29°56' W 093°09'2 4.3
2017-Nov-23 17:30N 29°58' W 093°11'2 4.6
2017-Nov-23 17:01N 29°59' W 093°13'2 4.1
2017-Nov-23 16:30N 30°01' W 093°14'1 2.5
2017-Nov-23 16:00N 30°02' W 093°15'1 2.1
2017-Nov-23 15:31N 30°03' W 093°16'1 2.9
2017-Nov-23 15:01N 30°04' W 093°16'2 3.0
2017-Nov-23 14:30N 30°05' W 093°17'0 1.0
2017-Nov-23 14:01N 30°05' W 093°18'1 1.9
2017-Nov-23 13:30N 30°06' W 093°19'0 0.8
2017-Nov-23 13:00N 30°06' W 093°19'0 0.1
2017-Nov-23 12:30N 30°06' W 093°19'0 0.0
2017-Nov-23 12:01N 30°06' W 093°19'0 0.0
2017-Nov-23 11:31N 30°06' W 093°19'0 0.0
2017-Nov-23 11:00N 30°06' W 093°19'0 0.0
2017-Nov-23 10:31N 30°06' W 093°19'0 0.0
2017-Nov-23 10:00N 30°06' W 093°19'0 0.1
2017-Nov-23 09:30N 30°06' W 093°19'0 0.0
2017-Nov-23 09:01N 30°06' W 093°19'0 0.0
2017-Nov-23 08:30N 30°06' W 093°19'0 0.0
2017-Nov-23 08:00N 30°06' W 093°19'0 0.2
2017-Nov-23 07:31N 30°06' W 093°19'0 0.4
2017-Nov-23 07:01N 30°06' W 093°19'1 1.7
2017-Nov-23 06:30N 30°05' W 093°20'0 0.2
2017-Nov-23 06:00N 30°05' W 093°20'0 0.1
2017-Nov-23 05:30N 30°05' W 093°20'0 0.0
2017-Nov-23 05:00N 30°05' W 093°20'0 0.0
2017-Nov-23 04:30N 30°05' W 093°20'0 0.1
2017-Nov-23 04:00N 30°05' W 093°20'0 0.5
2017-Nov-23 03:30N 30°05' W 093°20'0 1.0
2017-Nov-23 03:00N 30°04' W 093°20'1 2.6
2017-Nov-23 02:30N 30°04' W 093°21'1 1.9
2017-Nov-23 02:01N 30°04' W 093°23'1 1.3
2017-Nov-23 01:31N 30°04' W 093°23'0 0.9
2017-Nov-23 01:01N 30°04' W 093°24'0 0.1
2017-Nov-23 00:30N 30°04' W 093°24'0 0.0
2017-Nov-23 00:00N 30°04' W 093°24'0 0.0
2017-Nov-22 23:31N 30°04' W 093°24'0 0.0
2017-Nov-22 23:00N 30°04' W 093°24'0 0.0
2017-Nov-22 22:31N 30°04' W 093°24'0 0.0
2017-Nov-22 22:00N 30°04' W 093°24'0 0.0
2017-Nov-22 21:31N 30°04' W 093°24'0 0.4
2017-Nov-22 21:00N 30°04' W 093°24'0 0.8
2017-Nov-22 20:30N 30°04' W 093°24'0 0.0
2017-Nov-22 20:00N 30°04' W 093°24'0 0.0
2017-Nov-22 19:30N 30°04' W 093°24'  
2017-Nov-15 22:51N 29°45' W 095°04'3 7.1
2017-Nov-15 22:30N 29°44' W 095°02'3 6.8
2017-Nov-15 22:00N 29°41' W 094°59'4 7.6
2017-Nov-15 21:30N 29°38' W 094°58'4 7.7
2017-Nov-15 21:00N 29°34' W 094°55'  
Track history (hours):
 
Tides and Currents Weather Stations Pressure Air Temp Water Temp Dewpoint Dewpoint Depression Visibility Wind Speed Wind Dir Waves Ship Positions

Tee

Owner: Enterprise Marine Services, LLC, San Antonio, TX. More information available from US FCC via Universal Licensing System and Coast Guard Vessel Documentation Center.

Last reported at 2017-Nov-25 16:52 UTC. Time now 2018-Jan-24 01:52 UTC.
Position N 29°33' W 090°25'.
Warning: this ship's position is 59 days out of date.

Length 24 m; draft 2.7 m.

Type: . MMSI: 367003980.

Date/timePositionNaut miles runAvg speedWind from/ knotsBaromVisibWave heightAir tempDewpointWater temp
2017-Nov-25 16:52N 29°33' W 090°25'2 5.0
2017-Nov-25 16:29N 29°33' W 090°27'2 4.2
2017-Nov-25 16:00N 29°34' W 090°29'2 5.0
2017-Nov-25 15:30N 29°34' W 090°32'2 4.8
2017-Nov-25 15:00N 29°34' W 090°35'2 4.6
2017-Nov-25 14:31N 29°35' W 090°37'1 1.3
2017-Nov-25 14:00N 29°35' W 090°38'0 0.3
2017-Nov-25 13:30N 29°35' W 090°38'0 0.2
2017-Nov-25 13:00N 29°35' W 090°38'0 0.1
2017-Nov-25 12:30N 29°35' W 090°38'0 0.1
2017-Nov-25 12:00N 29°35' W 090°38'0 0.0
2017-Nov-25 11:30N 29°35' W 090°38'0 0.0
2017-Nov-25 11:00N 29°35' W 090°38'0 0.0
2017-Nov-25 10:30N 29°35' W 090°38'0 0.0
2017-Nov-25 10:00N 29°35' W 090°38'0 0.0
2017-Nov-25 09:30N 29°35' W 090°38'0 0.0
2017-Nov-25 09:01N 29°35' W 090°38'0 0.0
2017-Nov-25 08:30N 29°35' W 090°38'0 0.0
2017-Nov-25 08:00N 29°35' W 090°38'0 0.1
2017-Nov-25 07:31N 29°35' W 090°38'0 0.1
2017-Nov-25 07:00N 29°35' W 090°38'0 0.1
2017-Nov-25 06:30N 29°35' W 090°38'0 0.0
2017-Nov-25 06:00N 29°35' W 090°38'0 0.1
2017-Nov-25 05:30N 29°35' W 090°38'1 2.6
2017-Nov-25 05:00N 29°36' W 090°40'2 4.1
2017-Nov-25 04:30N 29°37' W 090°42'2 3.7
2017-Nov-25 04:00N 29°35' W 090°43'2 3.2
2017-Nov-25 03:30N 29°34' W 090°44'1 2.8
2017-Nov-25 03:00N 29°33' W 090°45'0 0.0
2017-Nov-25 02:31N 29°33' W 090°45'1 3.0
2017-Nov-25 02:00N 29°32' W 090°47'3 5.4
2017-Nov-25 01:30N 29°32' W 090°50'3 5.2
2017-Nov-25 00:58N 29°32' W 090°53'57 4.0
2017-Nov-24 10:43N 29°51' W 091°54'1 4.8
2017-Nov-24 10:30N 29°51' W 091°56'2 4.5
2017-Nov-24 10:00N 29°50' W 091°58'2 4.9
2017-Nov-24 09:30N 29°49' W 092°01'2 4.8
2017-Nov-24 09:01N 29°49' W 092°03'2 4.9
2017-Nov-24 08:30N 29°48' W 092°06'2 4.8
2017-Nov-24 08:01N 29°47' W 092°09'2 3.8
2017-Nov-24 07:31N 29°47' W 092°11'2 3.1
2017-Nov-24 07:00N 29°47' W 092°12'1 1.9
2017-Nov-24 06:30N 29°48' W 092°13'0 0.9
2017-Nov-24 06:01N 29°48' W 092°14'1 2.9
2017-Nov-24 05:30N 29°48' W 092°16'2 3.9
2017-Nov-24 05:01N 29°49' W 092°17'41 4.2
2017-Nov-23 19:06N 29°56' W 093°05'1 4.5
2017-Nov-23 18:59N 29°56' W 093°05'2 3.8
2017-Nov-23 18:31N 29°56' W 093°07'2 3.3
2017-Nov-23 18:00N 29°56' W 093°09'2 4.3
2017-Nov-23 17:30N 29°58' W 093°11'2 4.6
2017-Nov-23 17:01N 29°59' W 093°13'2 4.1
2017-Nov-23 16:30N 30°01' W 093°14'1 2.5
2017-Nov-23 16:00N 30°02' W 093°15'1 2.1
2017-Nov-23 15:31N 30°03' W 093°16'1 2.9
2017-Nov-23 15:01N 30°04' W 093°16'2 3.0
2017-Nov-23 14:30N 30°05' W 093°17'0 1.0
2017-Nov-23 14:01N 30°05' W 093°18'1 1.9
2017-Nov-23 13:30N 30°06' W 093°19'0 0.8
2017-Nov-23 13:00N 30°06' W 093°19'0 0.1
2017-Nov-23 12:30N 30°06' W 093°19'0 0.0
2017-Nov-23 12:01N 30°06' W 093°19'0 0.0
2017-Nov-23 11:31N 30°06' W 093°19'0 0.0
2017-Nov-23 11:00N 30°06' W 093°19'0 0.0
2017-Nov-23 10:31N 30°06' W 093°19'0 0.0
2017-Nov-23 10:00N 30°06' W 093°19'0 0.1
2017-Nov-23 09:30N 30°06' W 093°19'0 0.0
2017-Nov-23 09:01N 30°06' W 093°19'0 0.0
2017-Nov-23 08:30N 30°06' W 093°19'0 0.0
2017-Nov-23 08:00N 30°06' W 093°19'0 0.2
2017-Nov-23 07:31N 30°06' W 093°19'0 0.4
2017-Nov-23 07:01N 30°06' W 093°19'1 1.7
2017-Nov-23 06:30N 30°05' W 093°20'0 0.2
2017-Nov-23 06:00N 30°05' W 093°20'0 0.1
2017-Nov-23 05:30N 30°05' W 093°20'0 0.0
2017-Nov-23 05:00N 30°05' W 093°20'0 0.0
2017-Nov-23 04:30N 30°05' W 093°20'0 0.1
2017-Nov-23 04:00N 30°05' W 093°20'0 0.5
2017-Nov-23 03:30N 30°05' W 093°20'0 1.0
2017-Nov-23 03:00N 30°04' W 093°20'1 2.6
2017-Nov-23 02:30N 30°04' W 093°21'1 1.9
2017-Nov-23 02:01N 30°04' W 093°23'1 1.3
2017-Nov-23 01:31N 30°04' W 093°23'0 0.9
2017-Nov-23 01:01N 30°04' W 093°24'0 0.1
2017-Nov-23 00:30N 30°04' W 093°24'0 0.0
2017-Nov-23 00:00N 30°04' W 093°24'0 0.0
2017-Nov-22 23:31N 30°04' W 093°24'0 0.0
2017-Nov-22 23:00N 30°04' W 093°24'0 0.0
2017-Nov-22 22:31N 30°04' W 093°24'0 0.0
2017-Nov-22 22:00N 30°04' W 093°24'0 0.0
2017-Nov-22 21:31N 30°04' W 093°24'0 0.4
2017-Nov-22 21:00N 30°04' W 093°24'0 0.8
2017-Nov-22 20:30N 30°04' W 093°24'0 0.0
2017-Nov-22 20:00N 30°04' W 093°24'0 0.0
2017-Nov-22 19:30N 30°04' W 093°24'  
2017-Nov-15 22:51N 29°45' W 095°04'3 7.1
2017-Nov-15 22:30N 29°44' W 095°02'3 6.8
2017-Nov-15 22:00N 29°41' W 094°59'4 7.6
2017-Nov-15 21:30N 29°38' W 094°58'4 7.7
2017-Nov-15 21:00N 29°34' W 094°55'  

Dump ship's entire track history